Terminal Aerodrome Forecast
Issued by NWS Shreveport, LA

Home | Current Version | Previous Version | Text Only | Print | Product List | Glossary On
Versions: 1 2 3 4 5 6 7 8 9 10 11 12 13 14 15 16 17 18 19
227
FTUS44 KSHV 280520
TAFELD
TAF
KELD 280520Z 2806/2906 VRB04KT P6SM OVC150
      TEMPO 2809/2813 2SM BR OVC010
     FM281300 16005KT P6SM BKN020
      TEMPO 2813/2815 4SM BR OVC010
     FM281600 18008KT P6SM SCT030
      TEMPO 2816/2820 BKN020
     FM290200 14004KT P6SM SKC=

USA.gov is the U.S. government's official web portal to all federal, state and local government web resources and services.